sensor_id;sensor_type;location;lat;lon;timestamp;P1;durP1;ratioP1;P2;durP2;ratioP2
40072;SDS011;25774;52.256;9.356;2023-03-03T00:01:04;34.28;;;13.30;;
40072;SDS011;25774;52.256;9.356;2023-03-03T00:03:30;36.58;;;14.63;;
40072;SDS011;25774;52.256;9.356;2023-03-03T00:05:56;38.97;;;14.68;;
40072;SDS011;25774;52.256;9.356;2023-03-03T00:08:22;33.92;;;13.10;;
40072;SDS011;25774;52.256;9.356;2023-03-03T00:10:47;37.30;;;14.00;;
40072;SDS011;25774;52.256;9.356;2023-03-03T00:13:16;34.35;;;14.40;;
40072;SDS011;25774;52.256;9.356;2023-03-03T00:15:43;34.50;;;14.35;;
40072;SDS011;25774;52.256;9.356;2023-03-03T00:20:53;34.42;;;13.38;;
40072;SDS011;25774;52.256;9.356;2023-03-03T00:23:37;32.35;;;12.63;;
40072;SDS011;25774;52.256;9.356;2023-03-03T00:26:21;40.38;;;15.80;;
40072;SDS011;25774;52.256;9.356;2023-03-03T00:28:51;26.83;;;10.00;;
40072;SDS011;25774;52.256;9.356;2023-03-03T00:31:19;38.17;;;13.63;;
40072;SDS011;25774;52.256;9.356;2023-03-03T00:33:54;29.63;;;10.70;;
40072;SDS011;25774;52.256;9.356;2023-03-03T00:36:27;36.55;;;13.60;;
40072;SDS011;25774;52.256;9.356;2023-03-03T00:38:58;35.78;;;13.43;;
40072;SDS011;25774;52.256;9.356;2023-03-03T00:41:35;38.60;;;13.80;;
40072;SDS011;25774;52.256;9.356;2023-03-03T00:46:46;37.78;;;14.88;;
40072;SDS011;25774;52.256;9.356;2023-03-03T00:49:14;36.23;;;14.33;;
40072;SDS011;25774;52.256;9.356;2023-03-03T00:51:52;37.63;;;14.48;;
40072;SDS011;25774;52.256;9.356;2023-03-03T00:54:19;41.92;;;14.52;;
40072;SDS011;25774;52.256;9.356;2023-03-03T00:56:45;39.75;;;14.98;;
40072;SDS011;25774;52.256;9.356;2023-03-03T00:59:11;51.53;;;14.63;;
40072;SDS011;25774;52.256;9.356;2023-03-03T01:01:36;41.22;;;14.32;;
40072;SDS011;25774;52.256;9.356;2023-03-03T01:04:02;38.13;;;14.57;;
40072;SDS011;25774;52.256;9.356;2023-03-03T01:06:27;43.30;;;14.57;;
40072;SDS011;25774;52.256;9.356;2023-03-03T01:08:52;39.90;;;14.13;;
40072;SDS011;25774;52.256;9.356;2023-03-03T01:11:22;39.50;;;14.63;;
40072;SDS011;25774;52.256;9.356;2023-03-03T01:13:50;39.75;;;13.82;;
40072;SDS011;25774;52.256;9.356;2023-03-03T01:16:17;30.60;;;12.63;;
40072;SDS011;25774;52.256;9.356;2023-03-03T01:18:43;31.58;;;12.15;;
40072;SDS011;25774;52.256;9.356;2023-03-03T01:21:08;28.37;;;10.70;;
40072;SDS011;25774;52.256;9.356;2023-03-03T01:23:35;26.98;;;10.95;;
40072;SDS011;25774;52.256;9.356;2023-03-03T01:26:01;24.83;;;11.43;;
40072;SDS011;25774;52.256;9.356;2023-03-03T01:28:26;28.45;;;12.40;;
40072;SDS011;25774;52.256;9.356;2023-03-03T01:30:52;29.70;;;11.00;;
40072;SDS011;25774;52.256;9.356;2023-03-03T01:33:18;23.17;;;9.33;;
40072;SDS011;25774;52.256;9.356;2023-03-03T01:35:44;26.95;;;10.15;;
40072;SDS011;25774;52.256;9.356;2023-03-03T01:40:35;25.55;;;10.43;;
40072;SDS011;25774;52.256;9.356;2023-03-03T01:43:01;30.00;;;10.17;;
40072;SDS011;25774;52.256;9.356;2023-03-03T01:45:30;23.87;;;9.93;;
40072;SDS011;25774;52.256;9.356;2023-03-03T01:48:18;24.75;;;9.95;;
40072;SDS011;25774;52.256;9.356;2023-03-03T01:56:10;25.45;;;9.68;;
40072;SDS011;25774;52.256;9.356;2023-03-03T01:58:40;24.77;;;10.17;;
40072;SDS011;25774;52.256;9.356;2023-03-03T02:01:28;30.63;;;10.13;;
40072;SDS011;25774;52.256;9.356;2023-03-03T02:03:55;26.20;;;9.73;;
40072;SDS011;25774;52.256;9.356;2023-03-03T02:06:23;21.55;;;8.88;;
40072;SDS011;25774;52.256;9.356;2023-03-03T02:11:38;30.40;;;10.27;;
40072;SDS011;25774;52.256;9.356;2023-03-03T02:14:07;27.38;;;9.57;;
40072;SDS011;25774;52.256;9.356;2023-03-03T02:16:33;33.57;;;11.10;;
40072;SDS011;25774;52.256;9.356;2023-03-03T02:21:24;23.27;;;8.10;;
40072;SDS011;25774;52.256;9.356;2023-03-03T02:26:22;41.35;;;9.70;;
40072;SDS011;25774;52.256;9.356;2023-03-03T02:28:50;31.92;;;10.27;;
40072;SDS011;25774;52.256;9.356;2023-03-03T02:33:45;23.20;;;8.27;;
40072;SDS011;25774;52.256;9.356;2023-03-03T02:36:16;24.75;;;9.55;;
40072;SDS011;25774;52.256;9.356;2023-03-03T02:44:24;31.08;;;10.00;;
40072;SDS011;25774;52.256;9.356;2023-03-03T02:46:52;24.63;;;9.38;;
40072;SDS011;25774;52.256;9.356;2023-03-03T02:49:24;29.98;;;8.82;;
40072;SDS011;25774;52.256;9.356;2023-03-03T02:51:50;22.48;;;8.52;;
40072;SDS011;25774;52.256;9.356;2023-03-03T02:54:17;24.87;;;8.63;;
40072;SDS011;25774;52.256;9.356;2023-03-03T02:56:44;18.75;;;7.82;;
40072;SDS011;25774;52.256;9.356;2023-03-03T02:59:10;22.73;;;9.23;;
40072;SDS011;25774;52.256;9.356;2023-03-03T03:01:35;23.38;;;9.02;;
40072;SDS011;25774;52.256;9.356;2023-03-03T03:04:04;25.85;;;8.82;;
40072;SDS011;25774;52.256;9.356;2023-03-03T03:06:32;19.40;;;7.28;;
40072;SDS011;25774;52.256;9.356;2023-03-03T03:08:57;30.73;;;9.77;;
40072;SDS011;25774;52.256;9.356;2023-03-03T03:11:24;20.20;;;7.10;;
40072;SDS011;25774;52.256;9.356;2023-03-03T03:13:49;22.27;;;7.73;;
40072;SDS011;25774;52.256;9.356;2023-03-03T03:18:41;18.90;;;7.82;;
40072;SDS011;25774;52.256;9.356;2023-03-03T03:21:07;24.57;;;8.00;;
40072;SDS011;25774;52.256;9.356;2023-03-03T03:23:34;24.45;;;7.80;;
40072;SDS011;25774;52.256;9.356;2023-03-03T03:26:00;22.10;;;7.43;;
40072;SDS011;25774;52.256;9.356;2023-03-03T03:28:25;20.40;;;7.00;;
40072;SDS011;25774;52.256;9.356;2023-03-03T03:30:51;25.47;;;7.50;;
40072;SDS011;25774;52.256;9.356;2023-03-03T03:33:16;23.70;;;7.97;;
40072;SDS011;25774;52.256;9.356;2023-03-03T03:35:41;24.53;;;8.37;;
40072;SDS011;25774;52.256;9.356;2023-03-03T03:38:09;20.83;;;8.32;;
40072;SDS011;25774;52.256;9.356;2023-03-03T03:43:01;25.67;;;7.88;;
40072;SDS011;25774;52.256;9.356;2023-03-03T03:45:26;27.23;;;8.37;;
40072;SDS011;25774;52.256;9.356;2023-03-03T03:47:51;25.20;;;8.10;;
40072;SDS011;25774;52.256;9.356;2023-03-03T03:50:17;22.23;;;8.13;;
40072;SDS011;25774;52.256;9.356;2023-03-03T03:52:42;23.60;;;8.77;;
40072;SDS011;25774;52.256;9.356;2023-03-03T03:55:09;22.53;;;8.03;;
40072;SDS011;25774;52.256;9.356;2023-03-03T03:57:35;24.58;;;8.15;;
40072;SDS011;25774;52.256;9.356;2023-03-03T04:00:00;21.40;;;8.77;;
40072;SDS011;25774;52.256;9.356;2023-03-03T04:02:25;24.10;;;8.87;;
40072;SDS011;25774;52.256;9.356;2023-03-03T04:04:51;23.33;;;7.77;;
40072;SDS011;25774;52.256;9.356;2023-03-03T04:07:16;23.63;;;7.70;;
40072;SDS011;25774;52.256;9.356;2023-03-03T04:09:41;20.23;;;7.60;;
40072;SDS011;25774;52.256;9.356;2023-03-03T04:12:07;22.53;;;8.07;;
40072;SDS011;25774;52.256;9.356;2023-03-03T04:14:33;28.53;;;8.50;;
40072;SDS011;25774;52.256;9.356;2023-03-03T04:16:58;23.35;;;8.85;;
40072;SDS011;25774;52.256;9.356;2023-03-03T04:19:24;33.13;;;10.00;;
40072;SDS011;25774;52.256;9.356;2023-03-03T04:21:49;27.47;;;8.10;;
40072;SDS011;25774;52.256;9.356;2023-03-03T04:24:16;35.00;;;10.20;;
40072;SDS011;25774;52.256;9.356;2023-03-03T04:26:43;25.35;;;8.70;;
40072;SDS011;25774;52.256;9.356;2023-03-03T04:29:09;25.90;;;8.57;;
40072;SDS011;25774;52.256;9.356;2023-03-03T04:31:35;31.52;;;9.20;;
40072;SDS011;25774;52.256;9.356;2023-03-03T04:34:00;25.37;;;8.13;;
40072;SDS011;25774;52.256;9.356;2023-03-03T04:36:25;27.13;;;8.30;;
40072;SDS011;25774;52.256;9.356;2023-03-03T04:38:51;25.53;;;8.47;;
40072;SDS011;25774;52.256;9.356;2023-03-03T04:41:16;21.50;;;8.07;;
40072;SDS011;25774;52.256;9.356;2023-03-03T04:43:41;22.37;;;9.40;;
40072;SDS011;25774;52.256;9.356;2023-03-03T04:46:07;22.10;;;8.20;;
40072;SDS011;25774;52.256;9.356;2023-03-03T04:48:32;26.20;;;8.23;;
40072;SDS011;25774;52.256;9.356;2023-03-03T04:50:58;25.23;;;9.32;;
40072;SDS011;25774;52.256;9.356;2023-03-03T04:53:23;27.43;;;8.77;;
40072;SDS011;25774;52.256;9.356;2023-03-03T04:55:49;22.03;;;8.03;;
40072;SDS011;25774;52.256;9.356;2023-03-03T04:58:15;24.95;;;9.35;;
40072;SDS011;25774;52.256;9.356;2023-03-03T05:00:45;24.52;;;8.35;;
40072;SDS011;25774;52.256;9.356;2023-03-03T05:03:11;21.23;;;8.13;;
40072;SDS011;25774;52.256;9.356;2023-03-03T05:05:37;23.65;;;8.52;;
40072;SDS011;25774;52.256;9.356;2023-03-03T05:08:02;24.67;;;9.30;;
40072;SDS011;25774;52.256;9.356;2023-03-03T05:10:28;22.27;;;8.10;;
40072;SDS011;25774;52.256;9.356;2023-03-03T05:12:53;25.40;;;8.57;;
40072;SDS011;25774;52.256;9.356;2023-03-03T05:15:19;21.43;;;7.77;;
40072;SDS011;25774;52.256;9.356;2023-03-03T05:17:44;29.25;;;9.60;;
40072;SDS011;25774;52.256;9.356;2023-03-03T05:20:10;28.77;;;9.40;;
40072;SDS011;25774;52.256;9.356;2023-03-03T05:22:37;26.42;;;8.63;;
40072;SDS011;25774;52.256;9.356;2023-03-03T05:25:02;25.87;;;8.33;;
40072;SDS011;25774;52.256;9.356;2023-03-03T05:27:28;24.00;;;8.50;;
40072;SDS011;25774;52.256;9.356;2023-03-03T05:29:53;24.90;;;8.10;;
40072;SDS011;25774;52.256;9.356;2023-03-03T05:32:18;28.17;;;9.00;;
40072;SDS011;25774;52.256;9.356;2023-03-03T05:34:44;23.87;;;8.37;;
40072;SDS011;25774;52.256;9.356;2023-03-03T05:37:10;25.97;;;8.57;;
40072;SDS011;25774;52.256;9.356;2023-03-03T05:39:35;23.42;;;8.63;;
40072;SDS011;25774;52.256;9.356;2023-03-03T05:42:02;27.13;;;9.20;;
40072;SDS011;25774;52.256;9.356;2023-03-03T05:46:52;26.92;;;8.65;;
40072;SDS011;25774;52.256;9.356;2023-03-03T05:49:18;25.23;;;8.10;;
40072;SDS011;25774;52.256;9.356;2023-03-03T05:51:43;25.43;;;9.47;;
40072;SDS011;25774;52.256;9.356;2023-03-03T05:54:09;27.30;;;8.40;;
40072;SDS011;25774;52.256;9.356;2023-03-03T05:56:34;28.47;;;8.57;;
40072;SDS011;25774;52.256;9.356;2023-03-03T05:59:00;26.17;;;9.35;;
40072;SDS011;25774;52.256;9.356;2023-03-03T06:01:25;24.67;;;8.63;;
40072;SDS011;25774;52.256;9.356;2023-03-03T06:03:51;28.80;;;10.05;;
40072;SDS011;25774;52.256;9.356;2023-03-03T06:06:17;22.77;;;8.18;;
40072;SDS011;25774;52.256;9.356;2023-03-03T06:08:43;32.80;;;9.77;;
40072;SDS011;25774;52.256;9.356;2023-03-03T06:11:09;24.10;;;9.03;;
40072;SDS011;25774;52.256;9.356;2023-03-03T06:13:35;29.77;;;9.77;;
40072;SDS011;25774;52.256;9.356;2023-03-03T06:16:00;27.70;;;8.17;;
40072;SDS011;25774;52.256;9.356;2023-03-03T06:18:25;21.57;;;8.43;;
40072;SDS011;25774;52.256;9.356;2023-03-03T06:20:51;32.37;;;9.80;;
40072;SDS011;25774;52.256;9.356;2023-03-03T06:23:17;32.80;;;10.07;;
40072;SDS011;25774;52.256;9.356;2023-03-03T06:25:43;30.10;;;9.67;;
40072;SDS011;25774;52.256;9.356;2023-03-03T06:30:34;31.50;;;9.17;;
40072;SDS011;25774;52.256;9.356;2023-03-03T06:33:00;24.75;;;8.15;;
40072;SDS011;25774;52.256;9.356;2023-03-03T06:35:25;21.23;;;6.90;;
40072;SDS011;25774;52.256;9.356;2023-03-03T06:37:53;27.33;;;9.57;;
40072;SDS011;25774;52.256;9.356;2023-03-03T06:40:19;26.90;;;10.02;;
40072;SDS011;25774;52.256;9.356;2023-03-03T06:42:44;24.67;;;8.20;;
40072;SDS011;25774;52.256;9.356;2023-03-03T06:45:10;23.03;;;8.37;;
40072;SDS011;25774;52.256;9.356;2023-03-03T06:47:35;30.48;;;9.13;;
40072;SDS011;25774;52.256;9.356;2023-03-03T06:50:00;25.37;;;8.03;;
40072;SDS011;25774;52.256;9.356;2023-03-03T06:52:26;31.00;;;10.43;;
40072;SDS011;25774;52.256;9.356;2023-03-03T06:54:52;34.33;;;9.90;;
40072;SDS011;25774;52.256;9.356;2023-03-03T06:57:26;25.40;;;9.23;;
40072;SDS011;25774;52.256;9.356;2023-03-03T06:59:54;33.85;;;10.38;;
40072;SDS011;25774;52.256;9.356;2023-03-03T07:02:24;30.75;;;9.68;;
40072;SDS011;25774;52.256;9.356;2023-03-03T07:04:55;25.85;;;8.50;;
40072;SDS011;25774;52.256;9.356;2023-03-03T07:07:22;26.83;;;8.90;;
40072;SDS011;25774;52.256;9.356;2023-03-03T07:09:50;31.38;;;9.57;;
40072;SDS011;25774;52.256;9.356;2023-03-03T07:12:21;29.15;;;10.88;;
40072;SDS011;25774;52.256;9.356;2023-03-03T07:14:51;25.33;;;8.90;;
40072;SDS011;25774;52.256;9.356;2023-03-03T07:17:21;28.90;;;10.38;;
40072;SDS011;25774;52.256;9.356;2023-03-03T07:19:49;31.52;;;9.82;;
40072;SDS011;25774;52.256;9.356;2023-03-03T07:22:18;24.37;;;9.73;;
40072;SDS011;25774;52.256;9.356;2023-03-03T07:24:47;32.33;;;9.48;;
40072;SDS011;25774;52.256;9.356;2023-03-03T07:29:46;31.88;;;11.10;;
40072;SDS011;25774;52.256;9.356;2023-03-03T07:34:59;25.83;;;10.27;;
40072;SDS011;25774;52.256;9.356;2023-03-03T07:37:28;30.13;;;10.05;;
40072;SDS011;25774;52.256;9.356;2023-03-03T07:39:54;27.38;;;10.48;;
40072;SDS011;25774;52.256;9.356;2023-03-03T07:42:21;29.50;;;9.98;;
40072;SDS011;25774;52.256;9.356;2023-03-03T07:45:02;26.52;;;9.75;;
40072;SDS011;25774;52.256;9.356;2023-03-03T07:50:48;36.90;;;10.10;;
40072;SDS011;25774;52.256;9.356;2023-03-03T07:53:20;35.73;;;10.37;;
40072;SDS011;25774;52.256;9.356;2023-03-03T07:55:46;30.58;;;10.23;;
40072;SDS011;25774;52.256;9.356;2023-03-03T08:03:35;31.80;;;9.57;;
40072;SDS011;25774;52.256;9.356;2023-03-03T08:06:04;30.20;;;10.43;;
40072;SDS011;25774;52.256;9.356;2023-03-03T08:08:53;36.28;;;11.80;;
40072;SDS011;25774;52.256;9.356;2023-03-03T08:11:18;34.10;;;10.87;;
40072;SDS011;25774;52.256;9.356;2023-03-03T08:13:44;35.97;;;12.70;;
40072;SDS011;25774;52.256;9.356;2023-03-03T08:21:21;30.67;;;10.73;;
40072;SDS011;25774;52.256;9.356;2023-03-03T08:23:48;34.15;;;10.90;;
40072;SDS011;25774;52.256;9.356;2023-03-03T08:26:15;29.58;;;10.32;;
40072;SDS011;25774;52.256;9.356;2023-03-03T08:28:42;35.75;;;12.02;;
40072;SDS011;25774;52.256;9.356;2023-03-03T08:31:07;26.27;;;9.93;;
40072;SDS011;25774;52.256;9.356;2023-03-03T08:33:32;34.53;;;10.53;;
40072;SDS011;25774;52.256;9.356;2023-03-03T08:35:58;33.43;;;10.57;;
40072;SDS011;25774;52.256;9.356;2023-03-03T08:38:23;34.53;;;11.73;;
40072;SDS011;25774;52.256;9.356;2023-03-03T08:40:48;34.77;;;10.23;;
40072;SDS011;25774;52.256;9.356;2023-03-03T08:43:14;31.07;;;10.73;;
40072;SDS011;25774;52.256;9.356;2023-03-03T08:45:45;31.55;;;9.98;;
40072;SDS011;25774;52.256;9.356;2023-03-03T08:48:12;24.52;;;9.43;;
40072;SDS011;25774;52.256;9.356;2023-03-03T08:50:38;28.98;;;9.60;;
40072;SDS011;25774;52.256;9.356;2023-03-03T08:53:04;32.78;;;10.95;;
40072;SDS011;25774;52.256;9.356;2023-03-03T08:55:32;31.30;;;10.27;;
40072;SDS011;25774;52.256;9.356;2023-03-03T08:57:58;34.17;;;11.45;;
40072;SDS011;25774;52.256;9.356;2023-03-03T09:00:23;27.60;;;9.43;;
40072;SDS011;25774;52.256;9.356;2023-03-03T09:02:51;35.90;;;12.35;;
40072;SDS011;25774;52.256;9.356;2023-03-03T09:07:43;26.10;;;9.07;;
40072;SDS011;25774;52.256;9.356;2023-03-03T09:12:40;16.05;;;6.45;;
40072;SDS011;25774;52.256;9.356;2023-03-03T09:15:18;29.92;;;10.80;;
40072;SDS011;25774;52.256;9.356;2023-03-03T09:17:46;26.48;;;9.32;;
40072;SDS011;25774;52.256;9.356;2023-03-03T09:20:34;29.83;;;10.13;;
40072;SDS011;25774;52.256;9.356;2023-03-03T09:23:46;30.67;;;10.52;;
40072;SDS011;25774;52.256;9.356;2023-03-03T09:26:05;28.73;;;9.98;;
40072;SDS011;25774;52.256;9.356;2023-03-03T09:28:39;33.97;;;11.45;;
40072;SDS011;25774;52.256;9.356;2023-03-03T09:31:05;26.57;;;9.60;;
40072;SDS011;25774;52.256;9.356;2023-03-03T09:33:46;26.70;;;8.82;;
40072;SDS011;25774;52.256;9.356;2023-03-03T09:36:47;25.05;;;9.57;;
40072;SDS011;25774;52.256;9.356;2023-03-03T09:39:24;30.75;;;10.85;;
40072;SDS011;25774;52.256;9.356;2023-03-03T09:42:07;23.88;;;9.02;;
40072;SDS011;25774;52.256;9.356;2023-03-03T09:58:31;26.77;;;9.18;;
40072;SDS011;25774;52.256;9.356;2023-03-03T10:06:27;24.48;;;8.98;;
40072;SDS011;25774;52.256;9.356;2023-03-03T10:09:07;25.35;;;10.02;;
40072;SDS011;25774;52.256;9.356;2023-03-03T10:12:09;22.98;;;8.55;;
40072;SDS011;25774;52.256;9.356;2023-03-03T10:17:51;23.63;;;8.85;;
40072;SDS011;25774;52.256;9.356;2023-03-03T10:34:59;24.33;;;9.20;;
40072;SDS011;25774;52.256;9.356;2023-03-03T10:56:44;27.20;;;9.63;;
40072;SDS011;25774;52.256;9.356;2023-03-03T10:59:31;22.65;;;8.45;;
40072;SDS011;25774;52.256;9.356;2023-03-03T11:02:16;24.27;;;9.18;;
40072;SDS011;25774;52.256;9.356;2023-03-03T11:07:56;23.98;;;7.97;;
40072;SDS011;25774;52.256;9.356;2023-03-03T11:10:43;23.35;;;8.25;;
40072;SDS011;25774;52.256;9.356;2023-03-03T11:22:05;19.95;;;7.90;;
40072;SDS011;25774;52.256;9.356;2023-03-03T11:33:05;22.67;;;9.20;;
40072;SDS011;25774;52.256;9.356;2023-03-03T11:35:56;25.13;;;8.90;;
40072;SDS011;25774;52.256;9.356;2023-03-03T11:39:17;23.77;;;8.10;;
40072;SDS011;25774;52.256;9.356;2023-03-03T11:44:43;28.67;;;10.77;;
40072;SDS011;25774;52.256;9.356;2023-03-03T11:47:37;26.75;;;8.38;;
40072;SDS011;25774;52.256;9.356;2023-03-03T11:50:23;21.88;;;9.45;;
40072;SDS011;25774;52.256;9.356;2023-03-03T11:53:06;22.10;;;8.55;;
40072;SDS011;25774;52.256;9.356;2023-03-03T11:55:56;17.48;;;7.50;;
40072;SDS011;25774;52.256;9.356;2023-03-03T12:03:53;19.58;;;7.10;;
40072;SDS011;25774;52.256;9.356;2023-03-03T12:12:26;22.33;;;8.10;;
40072;SDS011;25774;52.256;9.356;2023-03-03T12:20:24;25.13;;;8.52;;
40072;SDS011;25774;52.256;9.356;2023-03-03T12:26:01;24.92;;;8.73;;
40072;SDS011;25774;52.256;9.356;2023-03-03T12:28:37;25.13;;;8.95;;
40072;SDS011;25774;52.256;9.356;2023-03-03T12:31:22;22.45;;;8.55;;
40072;SDS011;25774;52.256;9.356;2023-03-03T12:36:54;23.20;;;8.20;;
40072;SDS011;25774;52.256;9.356;2023-03-03T12:39:43;23.75;;;8.88;;
40072;SDS011;25774;52.256;9.356;2023-03-03T12:45:22;25.08;;;10.35;;
40072;SDS011;25774;52.256;9.356;2023-03-03T12:48:00;24.83;;;9.40;;
40072;SDS011;25774;52.256;9.356;2023-03-03T12:50:38;25.65;;;10.68;;
40072;SDS011;25774;52.256;9.356;2023-03-03T12:53:24;26.70;;;10.88;;
40072;SDS011;25774;52.256;9.356;2023-03-03T13:04:43;31.52;;;12.63;;
40072;SDS011;25774;52.256;9.356;2023-03-03T13:22:50;38.83;;;14.25;;
40072;SDS011;25774;52.256;9.356;2023-03-03T13:30:49;45.78;;;16.10;;
40072;SDS011;25774;52.256;9.356;2023-03-03T13:35:53;35.38;;;14.10;;
40072;SDS011;25774;52.256;9.356;2023-03-03T13:39:11;36.35;;;13.85;;
40072;SDS011;25774;52.256;9.356;2023-03-03T13:41:31;40.20;;;13.70;;
40072;SDS011;25774;52.256;9.356;2023-03-03T13:52:30;49.80;;;17.95;;
40072;SDS011;25774;52.256;9.356;2023-03-03T13:57:57;48.28;;;16.73;;
40072;SDS011;25774;52.256;9.356;2023-03-03T14:00:49;49.45;;;16.08;;
40072;SDS011;25774;52.256;9.356;2023-03-03T14:06:08;54.58;;;17.45;;
40072;SDS011;25774;52.256;9.356;2023-03-03T14:19:09;63.03;;;20.63;;
40072;SDS011;25774;52.256;9.356;2023-03-03T14:21:42;60.95;;;20.88;;
40072;SDS011;25774;52.256;9.356;2023-03-03T14:24:17;62.85;;;20.67;;
40072;SDS011;25774;52.256;9.356;2023-03-03T14:26:49;58.72;;;19.65;;
40072;SDS011;25774;52.256;9.356;2023-03-03T14:31:54;56.35;;;19.65;;
40072;SDS011;25774;52.256;9.356;2023-03-03T14:34:40;65.00;;;20.80;;
40072;SDS011;25774;52.256;9.356;2023-03-03T14:37:20;52.50;;;19.20;;
40072;SDS011;25774;52.256;9.356;2023-03-03T14:42:37;56.85;;;20.05;;
40072;SDS011;25774;52.256;9.356;2023-03-03T14:45:18;47.65;;;17.17;;
40072;SDS011;25774;52.256;9.356;2023-03-03T14:47:46;47.80;;;18.10;;
40072;SDS011;25774;52.256;9.356;2023-03-03T14:50:31;43.97;;;16.57;;
40072;SDS011;25774;52.256;9.356;2023-03-03T14:55:35;35.90;;;15.02;;
40072;SDS011;25774;52.256;9.356;2023-03-03T14:58:03;41.45;;;16.52;;
40072;SDS011;25774;52.256;9.356;2023-03-03T15:00:32;39.88;;;15.45;;
40072;SDS011;25774;52.256;9.356;2023-03-03T15:05:56;42.72;;;16.00;;
40072;SDS011;25774;52.256;9.356;2023-03-03T15:08:31;44.15;;;16.65;;
40072;SDS011;25774;52.256;9.356;2023-03-03T15:11:41;45.17;;;16.58;;
40072;SDS011;25774;52.256;9.356;2023-03-03T15:28:43;32.75;;;14.15;;
40072;SDS011;25774;52.256;9.356;2023-03-03T15:34:33;30.95;;;12.38;;
40072;SDS011;25774;52.256;9.356;2023-03-03T15:37:17;26.70;;;11.45;;
40072;SDS011;25774;52.256;9.356;2023-03-03T15:42:36;28.73;;;10.93;;
40072;SDS011;25774;52.256;9.356;2023-03-03T15:45:31;27.35;;;11.75;;
40072;SDS011;25774;52.256;9.356;2023-03-03T15:50:51;25.80;;;10.80;;
40072;SDS011;25774;52.256;9.356;2023-03-03T15:56:25;31.00;;;11.35;;
40072;SDS011;25774;52.256;9.356;2023-03-03T16:01:52;29.25;;;11.90;;
40072;SDS011;25774;52.256;9.356;2023-03-03T16:04:28;32.72;;;11.30;;
40072;SDS011;25774;52.256;9.356;2023-03-03T16:07:11;28.05;;;10.45;;
40072;SDS011;25774;52.256;9.356;2023-03-03T16:09:53;20.10;;;7.60;;
40072;SDS011;25774;52.256;9.356;2023-03-03T16:23:51;29.67;;;10.80;;
40072;SDS011;25774;52.256;9.356;2023-03-03T16:32:14;28.40;;;9.95;;
40072;SDS011;25774;52.256;9.356;2023-03-03T16:34:54;24.90;;;10.05;;
40072;SDS011;25774;52.256;9.356;2023-03-03T16:37:50;24.23;;;9.50;;
40072;SDS011;25774;52.256;9.356;2023-03-03T16:40:22;28.73;;;10.52;;
40072;SDS011;25774;52.256;9.356;2023-03-03T16:42:59;27.17;;;10.73;;
40072;SDS011;25774;52.256;9.356;2023-03-03T16:45:34;27.80;;;10.57;;
40072;SDS011;25774;52.256;9.356;2023-03-03T17:17:10;28.08;;;11.70;;
40072;SDS011;25774;52.256;9.356;2023-03-03T17:20:02;29.35;;;10.82;;
40072;SDS011;25774;52.256;9.356;2023-03-03T17:22:37;20.30;;;7.90;;
40072;SDS011;25774;52.256;9.356;2023-03-03T17:25:21;29.95;;;10.73;;
40072;SDS011;25774;52.256;9.356;2023-03-03T17:31:03;27.17;;;10.10;;
40072;SDS011;25774;52.256;9.356;2023-03-03T17:36:31;29.65;;;10.15;;
40072;SDS011;25774;52.256;9.356;2023-03-03T17:46:55;27.90;;;10.13;;
40072;SDS011;25774;52.256;9.356;2023-03-03T17:49:35;30.55;;;10.27;;
40072;SDS011;25774;52.256;9.356;2023-03-03T17:52:41;30.52;;;11.50;;
40072;SDS011;25774;52.256;9.356;2023-03-03T18:20:00;31.05;;;11.82;;
40072;SDS011;25774;52.256;9.356;2023-03-03T18:22:43;28.70;;;10.18;;
40072;SDS011;25774;52.256;9.356;2023-03-03T18:25:12;27.25;;;8.40;;
40072;SDS011;25774;52.256;9.356;2023-03-03T18:27:42;27.35;;;9.50;;
40072;SDS011;25774;52.256;9.356;2023-03-03T18:35:38;30.38;;;9.75;;
40072;SDS011;25774;52.256;9.356;2023-03-03T18:46:11;26.77;;;9.13;;
40072;SDS011;25774;52.256;9.356;2023-03-03T18:54:21;24.50;;;8.80;;
40072;SDS011;25774;52.256;9.356;2023-03-03T19:04:39;23.20;;;8.70;;
40072;SDS011;25774;52.256;9.356;2023-03-03T19:07:12;21.70;;;8.40;;
40072;SDS011;25774;52.256;9.356;2023-03-03T19:09:54;24.65;;;8.07;;
40072;SDS011;25774;52.256;9.356;2023-03-03T19:20:45;22.25;;;7.45;;
40072;SDS011;25774;52.256;9.356;2023-03-03T19:23:16;18.20;;;7.45;;
40072;SDS011;25774;52.256;9.356;2023-03-03T19:25:44;22.48;;;7.30;;
40072;SDS011;25774;52.256;9.356;2023-03-03T19:28:19;21.70;;;8.23;;
40072;SDS011;25774;52.256;9.356;2023-03-03T19:39:01;23.73;;;7.95;;
40072;SDS011;25774;52.256;9.356;2023-03-03T19:44:50;19.55;;;7.80;;
40072;SDS011;25774;52.256;9.356;2023-03-03T19:47:04;19.92;;;7.68;;
40072;SDS011;25774;52.256;9.356;2023-03-03T19:49:44;22.00;;;7.78;;
40072;SDS011;25774;52.256;9.356;2023-03-03T19:55:34;19.92;;;7.50;;
40072;SDS011;25774;52.256;9.356;2023-03-03T19:58:23;22.75;;;8.93;;
40072;SDS011;25774;52.256;9.356;2023-03-03T20:01:16;21.92;;;7.93;;
40072;SDS011;25774;52.256;9.356;2023-03-03T20:06:54;19.25;;;7.15;;
40072;SDS011;25774;52.256;9.356;2023-03-03T20:09:55;17.23;;;8.20;;
40072;SDS011;25774;52.256;9.356;2023-03-03T20:23:53;23.20;;;7.88;;
40072;SDS011;25774;52.256;9.356;2023-03-03T20:31:47;27.30;;;9.95;;
40072;SDS011;25774;52.256;9.356;2023-03-03T20:34:29;27.17;;;9.27;;
40072;SDS011;25774;52.256;9.356;2023-03-03T20:37:12;21.88;;;8.07;;
40072;SDS011;25774;52.256;9.356;2023-03-03T20:45:05;19.67;;;7.68;;
40072;SDS011;25774;52.256;9.356;2023-03-03T20:47:59;17.55;;;7.88;;
40072;SDS011;25774;52.256;9.356;2023-03-03T20:50:39;21.20;;;7.22;;
40072;SDS011;25774;52.256;9.356;2023-03-03T20:53:16;17.63;;;7.55;;
40072;SDS011;25774;52.256;9.356;2023-03-03T20:55:46;17.98;;;8.38;;
40072;SDS011;25774;52.256;9.356;2023-03-03T21:01:04;17.25;;;6.18;;
40072;SDS011;25774;52.256;9.356;2023-03-03T21:06:04;23.20;;;6.82;;
40072;SDS011;25774;52.256;9.356;2023-03-03T21:08:47;17.50;;;6.95;;
40072;SDS011;25774;52.256;9.356;2023-03-03T21:14:17;16.35;;;6.53;;
40072;SDS011;25774;52.256;9.356;2023-03-03T21:17:23;13.07;;;5.47;;
40072;SDS011;25774;52.256;9.356;2023-03-03T21:19:52;13.40;;;5.55;;
40072;SDS011;25774;52.256;9.356;2023-03-03T21:22:17;11.83;;;5.23;;
40072;SDS011;25774;52.256;9.356;2023-03-03T21:24:47;14.33;;;5.27;;
40072;SDS011;25774;52.256;9.356;2023-03-03T21:32:43;12.48;;;4.55;;
40072;SDS011;25774;52.256;9.356;2023-03-03T21:35:11;11.77;;;4.68;;
40072;SDS011;25774;52.256;9.356;2023-03-03T21:37:46;12.57;;;3.92;;
40072;SDS011;25774;52.256;9.356;2023-03-03T21:40:22;15.13;;;3.58;;
40072;SDS011;25774;52.256;9.356;2023-03-03T21:42:57;12.07;;;3.38;;
40072;SDS011;25774;52.256;9.356;2023-03-03T21:45:24;10.85;;;3.55;;
40072;SDS011;25774;52.256;9.356;2023-03-03T21:47:50;16.45;;;3.90;;
40072;SDS011;25774;52.256;9.356;2023-03-03T21:50:16;20.58;;;3.33;;
40072;SDS011;25774;52.256;9.356;2023-03-03T21:52:45;8.98;;;2.75;;
40072;SDS011;25774;52.256;9.356;2023-03-03T21:55:10;12.40;;;3.03;;
40072;SDS011;25774;52.256;9.356;2023-03-03T21:57:36;18.77;;;4.23;;
40072;SDS011;25774;52.256;9.356;2023-03-03T22:00:02;23.30;;;3.20;;
40072;SDS011;25774;52.256;9.356;2023-03-03T22:02:29;17.58;;;4.90;;
40072;SDS011;25774;52.256;9.356;2023-03-03T22:04:54;11.77;;;3.10;;
40072;SDS011;25774;52.256;9.356;2023-03-03T22:07:20;22.10;;;3.10;;
40072;SDS011;25774;52.256;9.356;2023-03-03T22:09:45;16.53;;;3.00;;
40072;SDS011;25774;52.256;9.356;2023-03-03T22:12:10;13.30;;;2.90;;